Lashburn, Canada
Current Conditions -  °F | °C
As of 7:49 AM on Friday 19 Dec 2014 (Local Time) from CYLL Reporting Station
Moderate Fog Moderate Fog  
Wind Chill: -2°   Ceiling: 100
Heat Index:   Visibility: 0.5mi
Dew Point:   Wind: 5mph
Humidity: 92%   Direction: 170°S
Pressure: 29.84"   Gusts: NA
Location:  53.12°N, 109.61°W
Report Text: CYLL 191349Z AUTO 17004KT 1/2SM FZFG VV001 M14/M15 A2984 RMK SLP158
Loading
Personal Weather Stations






























Interactive Weather Map New forecast layout! Learn more

10-Day Weather Forecast

Advertisements
Track Severe Weather on mobile